Time;durP1;ratioP1;P1;durP2;ratioP2;P2;SDS_P1;SDS_P2;PMS_P1;PMS_P2;Temp;Humidity;BMP_temperature;BMP_pressure;BME280_temperature;BME280_humidity;BME280_pressure;Samples;Min_cycle;Max_cycle;Signal;HPM_P1;HPM_P2
2020/12/20 00:02:32;;;;;;;12.70;11.50;;;;;;;2.78;70.63;98459.75;8368709;28;20572;-78
2020/12/20 00:06:37;;;;;;;12.00;10.90;;;;;;;2.80;70.83;98457.16;8368538;28;20228;-77
2020/12/20 00:10:39;;;;;;;12.13;11.00;;;;;;;2.99;69.73;98453.66;8368576;28;20223;-77
2020/12/20 00:14:40;;;;;;;11.67;10.57;;;;;;;2.99;69.63;98452.78;8369250;28;20204;-78
2020/12/20 00:18:43;;;;;;;11.40;10.40;;;;;;;3.02;69.51;98456.16;8369635;28;20552;-77
2020/12/20 00:22:45;;;;;;;11.33;10.33;;;;;;;3.06;69.87;98462.97;8369012;28;20234;-78
2020/12/20 00:26:46;;;;;;;11.10;10.00;;;;;;;3.20;68.77;98464.59;8369281;28;20232;-78
2020/12/20 00:30:48;;;;;;;11.60;10.50;;;;;;;2.84;70.19;98456.31;8368800;28;20204;-78
2020/12/20 00:34:51;;;;;;;10.93;10.00;;;;;;;2.84;69.77;98459.69;8368780;28;20203;-78
2020/12/20 00:38:52;;;;;;;11.10;10.10;;;;;;;2.70;70.42;98453.78;8369229;28;20196;-78
2020/12/20 00:42:54;;;;;;;11.53;10.43;;;;;;;2.79;69.55;98446.06;8367633;28;20687;-77
2020/12/20 00:46:57;;;;;;;11.63;10.53;;;;;;;2.85;70.10;98437.50;8367875;28;20231;-77
2020/12/20 00:51:02;;;;;;;10.83;9.83;;;;;;;2.87;70.28;98438.34;8362165;28;20250;-77
2020/12/20 00:55:04;;;;;;;12.03;10.93;;;;;;;2.70;69.93;98434.19;8367955;28;20188;-77
2020/12/20 00:59:06;;;;;;;11.93;10.83;;;;;;;2.80;69.88;98440.13;8367777;28;20541;-77
2020/12/20 01:03:07;;;;;;;10.87;9.87;;;;;;;2.48;71.13;98428.34;8367516;28;20258;-78
2020/12/20 01:07:10;;;;;;;11.40;10.40;;;;;;;2.54;71.15;98435.97;8367279;28;20231;-77
2020/12/20 01:11:12;;;;;;;11.07;10.07;;;;;;;2.86;69.74;98427.28;8367295;28;20215;-77
2020/12/20 01:15:14;;;;;;;12.37;11.17;;;;;;;2.64;70.18;98444.44;8367445;28;20215;-76
2020/12/20 01:19:15;;;;;;;11.97;10.87;;;;;;;2.76;70.17;98445.25;8368138;28;20196;-78
2020/12/20 01:23:18;;;;;;;11.70;10.60;;;;;;;3.00;69.24;98447.66;8367528;28;20219;-79
2020/12/20 01:27:20;;;;;;;11.87;10.77;;;;;;;3.03;69.02;98442.53;8367251;28;20214;-79
2020/12/20 01:31:22;;;;;;;11.37;10.37;;;;;;;2.84;69.66;98462.25;8367561;28;20242;-78
2020/12/20 01:35:24;;;;;;;10.83;9.93;;;;;;;2.92;69.36;98451.97;8367676;28;20667;-78
2020/12/20 01:39:27;;;;;;;11.77;10.67;;;;;;;2.73;69.73;98451.22;8366897;28;20203;-78
2020/12/20 01:43:40;;;;;;;10.73;9.83;;;;;;;2.68;69.90;98445.28;8367484;28;20231;-78
2020/12/20 01:47:42;;;;;;;11.37;10.27;;;;;;;2.75;69.88;98434.16;8367362;28;20224;-78
2020/12/20 01:51:44;;;;;;;11.70;10.53;;;;;;;2.63;70.20;98439.34;8366663;28;20231;-78
2020/12/20 01:55:47;;;;;;;11.97;10.87;;;;;;;2.40;70.81;98431.75;8367109;28;20196;-78
2020/12/20 01:59:49;;;;;;;12.60;11.50;;;;;;;2.32;70.75;98427.56;8367044;28;20222;-78
2020/12/20 02:03:50;;;;;;;12.90;11.70;;;;;;;2.34;70.81;98427.53;8366731;28;20584;-79
2020/12/20 02:07:52;;;;;;;12.77;11.57;;;;;;;2.30;70.68;98431.81;8366305;28;20639;-78
2020/12/20 02:12:02;;;;;;;13.67;12.37;;;;;;;2.31;71.07;98430.94;8366764;28;20207;-78
2020/12/20 02:16:04;;;;;;;13.10;11.90;;;;;;;2.37;70.52;98434.34;8366792;28;20195;-78
2020/12/20 02:20:06;;;;;;;13.80;12.50;;;;;;;2.26;70.90;98427.56;8366031;28;20203;-79
2020/12/20 02:24:09;;;;;;;13.07;11.87;;;;;;;2.23;70.55;98421.59;8366735;28;20234;-78
2020/12/20 02:28:10;;;;;;;12.97;11.73;;;;;;;2.31;70.80;98423.28;8368240;28;20204;-78
2020/12/20 02:32:12;;;;;;;14.60;13.20;;;;;;;2.30;70.78;98425.84;8365913;28;20206;-78
2020/12/20 02:36:14;;;;;;;13.67;12.37;;;;;;;2.47;70.15;98430.88;8366281;28;20204;-77
2020/12/20 02:40:16;;;;;;;13.97;12.67;;;;;;;2.44;69.80;98429.22;8365270;28;20212;-78
2020/12/20 02:44:18;;;;;;;14.27;12.77;;;;;;;2.32;70.58;98419.88;8366754;28;20663;-78
2020/12/20 02:48:21;;;;;;;14.70;13.27;;;;;;;2.28;70.93;98425.00;8398736;28;20654;-78
2020/12/20 02:52:23;;;;;;;13.80;12.50;;;;;;;2.46;70.69;98432.59;8399544;28;20234;-78
2020/12/20 02:56:26;;;;;;;14.03;12.73;;;;;;;2.50;69.84;98436.00;8398005;28;20199;-78
2020/12/20 03:00:27;;;;;;;13.20;11.90;;;;;;;2.70;69.95;98435.88;8399012;28;20544;-78
2020/12/20 03:04:29;;;;;;;13.77;12.37;;;;;;;2.64;69.52;98439.31;8400768;28;20242;-78
2020/12/20 03:08:31;;;;;;;13.73;12.43;;;;;;;2.35;70.81;98424.13;8400550;28;20199;-78
2020/12/20 03:12:33;;;;;;;13.47;12.17;;;;;;;2.67;69.14;98429.09;8398599;28;20524;-78
2020/12/20 03:16:35;;;;;;;14.07;12.77;;;;;;;2.62;70.17;98435.09;8398932;28;20222;-78
2020/12/20 03:20:37;;;;;;;12.90;11.70;;;;;;;2.41;70.24;98428.38;8398387;28;20540;-78
2020/12/20 03:24:38;;;;;;;13.57;12.37;;;;;;;2.48;70.07;98433.44;8398751;28;20276;-78
2020/12/20 03:28:41;;;;;;;13.37;12.07;;;;;;;2.58;70.09;98434.25;8398631;28;20199;-78
2020/12/20 03:32:43;;;;;;;14.50;13.13;;;;;;;2.34;71.07;98417.31;8399888;28;20638;-78
2020/12/20 03:36:44;;;;;;;14.27;12.87;;;;;;;2.43;70.93;98414.72;8403481;28;20235;-78
2020/12/20 03:40:46;;;;;;;12.50;11.40;;;;;;;2.38;70.60;98405.34;8404586;28;20219;-78
2020/12/20 03:44:49;;;;;;;12.37;11.23;;;;;;;2.29;70.54;98412.22;8404021;28;20227;-78
2020/12/20 03:48:52;;;;;;;13.60;12.30;;;;;;;2.13;70.88;98421.66;8403552;28;20207;-78
2020/12/20 03:52:54;;;;;;;13.43;12.13;;;;;;;2.10;71.21;98428.47;8403462;28;20655;-78
2020/12/20 03:56:56;;;;;;;13.00;11.80;;;;;;;2.08;71.99;98430.19;8405706;28;20226;-79
2020/12/20 04:00:58;;;;;;;11.93;10.83;;;;;;;2.20;71.21;98421.63;8402714;28;20203;-77
2020/12/20 04:05:00;;;;;;;12.50;11.40;;;;;;;2.24;71.27;98415.66;8402885;28;20231;-78
2020/12/20 04:09:02;;;;;;;14.33;12.93;;;;;;;2.08;71.87;98414.88;8402787;28;20203;-78
2020/12/20 04:13:03;;;;;;;12.93;11.73;;;;;;;2.34;70.61;98412.19;8402761;28;20207;-77
2020/12/20 04:17:06;;;;;;;12.77;11.57;;;;;;;2.46;70.29;98409.59;8402981;28;20520;-78
2020/12/20 04:21:07;;;;;;;13.13;11.77;;;;;;;2.19;71.32;98417.38;8403053;28;20241;-78
2020/12/20 04:25:09;;;;;;;12.87;11.67;;;;;;;2.40;70.18;98424.97;8402910;28;20562;-79
2020/12/20 04:29:11;;;;;;;13.33;12.03;;;;;;;2.36;70.59;98420.69;8402107;28;20689;-78
2020/12/20 04:33:14;;;;;;;13.00;11.80;;;;;;;2.66;69.49;98421.41;8401779;28;20204;-78
2020/12/20 04:37:16;;;;;;;12.60;11.40;;;;;;;2.58;69.71;98418.06;8402520;28;20210;-78
2020/12/20 04:41:19;;;;;;;13.30;11.90;;;;;;;2.77;69.24;98421.38;8401592;28;20240;-78
2020/12/20 04:45:21;;;;;;;12.93;11.67;;;;;;;2.52;69.83;98429.16;8391347;28;20200;-78
2020/12/20 04:49:24;;;;;;;13.40;12.10;;;;;;;2.66;69.17;98432.50;8368662;28;20196;-79
2020/12/20 04:53:27;;;;;;;13.43;12.13;;;;;;;2.52;69.53;98426.63;8368946;28;20263;-78
2020/12/20 04:57:34;;;;;;;13.13;11.83;;;;;;;2.57;69.36;98414.66;8368430;28;20737;-78
2020/12/20 05:01:36;;;;;;;13.93;12.63;;;;;;;2.35;70.10;98419.00;8369005;28;20220;-78
2020/12/20 05:05:38;;;;;;;13.77;12.47;;;;;;;2.33;69.82;98429.25;8367801;28;20224;-78
2020/12/20 05:09:46;;;;;;;14.03;12.67;;;;;;;2.48;69.48;98425.78;8368574;28;20643;-78
2020/12/20 05:13:48;;;;;;;14.17;12.87;;;;;;;2.32;70.34;98411.34;8368072;28;20211;-78
2020/12/20 05:18:03;;;;;;;13.93;12.63;;;;;;;2.36;70.62;98407.91;8367424;28;20204;-78
2020/12/20 05:22:16;;;;;;;14.50;13.17;;;;;;;2.49;69.73;98424.06;8367429;28;20649;-77
2020/12/20 05:26:25;;;;;;;13.50;12.20;;;;;;;2.68;69.30;98430.78;8367963;28;20240;-78
2020/12/20 05:30:26;;;;;;;14.27;12.97;;;;;;;2.60;68.79;98416.34;8367691;28;20211;-78
2020/12/20 05:34:28;;;;;;;14.53;13.13;;;;;;;2.65;69.08;98415.47;8367395;28;20226;-78
2020/12/20 05:38:31;;;;;;;15.10;13.70;;;;;;;2.86;68.73;98416.22;8366763;28;20215;-78
2020/12/20 05:42:33;;;;;;;16.37;14.77;;;;;;;2.52;68.81;98408.72;8366234;28;20314;-78
2020/12/20 05:46:35;;;;;;;14.93;13.53;;;;;;;2.72;69.03;98401.78;8346435;28;20246;-78
2020/12/20 05:50:37;;;;;;;15.87;14.37;;;;;;;2.31;69.82;98407.94;8333716;28;20240;-78
2020/12/20 05:54:41;;;;;;;15.93;14.30;;;;;;;2.43;69.81;98404.47;8333493;28;20208;-78
2020/12/20 05:58:43;;;;;;;16.27;14.77;;;;;;;2.77;68.74;98408.59;8333263;28;20219;-78
2020/12/20 06:02:45;;;;;;;16.33;14.83;;;;;;;2.43;69.61;98411.31;8333148;28;20676;-78
2020/12/20 06:06:51;;;;;;;16.70;15.20;;;;;;;2.27;70.60;98402.88;8345551;28;20223;-78
2020/12/20 06:10:54;;;;;;;15.23;13.87;;;;;;;2.59;69.31;98405.28;8365319;28;20203;-78
2020/12/20 06:14:57;;;;;;;17.20;15.60;;;;;;;2.34;70.74;98409.63;8365403;28;20207;-78
2020/12/20 06:19:03;;;;;;;16.20;14.60;;;;;;;2.34;70.76;98402.84;8365348;28;20227;-78
2020/12/20 06:23:04;;;;;;;17.30;15.60;;;;;;;2.40;69.76;98407.06;8366366;28;20216;-78
2020/12/20 06:27:14;;;;;;;16.27;14.67;;;;;;;2.57;69.43;98407.00;8365700;28;20628;-78
2020/12/20 06:31:18;;;;;;;17.93;16.10;;;;;;;2.34;70.63;98397.72;8365288;28;20584;-78
2020/12/20 06:35:22;;;;;;;17.77;16.07;;;;;;;2.45;70.69;98395.09;8366595;28;20298;-78
2020/12/20 06:39:37;;;;;;;17.90;16.13;;;;;;;2.52;70.21;98398.50;8365427;28;20196;-78
2020/12/20 06:43:39;;;;;;;18.00;16.13;;;;;;;2.90;68.87;98403.38;8364575;28;20226;-78
2020/12/20 06:47:42;;;;;;;17.70;15.90;;;;;;;2.49;69.83;98398.50;8365575;28;20246;-78
2020/12/20 06:51:44;;;;;;;18.40;16.50;;;;;;;2.65;69.34;98399.28;8365460;28;20267;-78
2020/12/20 06:55:46;;;;;;;18.57;16.67;;;;;;;2.84;68.93;98395.75;8365757;28;20646;-78
2020/12/20 06:59:49;;;;;;;18.80;16.90;;;;;;;2.53;69.46;98401.03;8365546;28;20195;-78
2020/12/20 07:03:52;;;;;;;19.67;17.67;;;;;;;2.36;70.39;98405.34;8364349;28;20235;-78
2020/12/20 07:08:09;;;;;;;18.30;16.50;;;;;;;2.56;69.76;98407.84;8367369;28;20211;-78
2020/12/20 07:12:31;;;;;;;19.03;17.13;;;;;;;2.66;69.04;98411.19;8372235;28;20195;-78
2020/12/20 07:16:38;;;;;;;19.10;17.20;;;;;;;2.70;69.02;98418.84;8372609;28;20187;-79
2020/12/20 07:20:40;;;;;;;19.97;17.97;;;;;;;2.83;68.59;98434.97;8371473;28;20184;-78
2020/12/20 07:24:58;;;;;;;19.17;17.17;;;;;;;2.93;68.49;98435.75;8371684;28;20258;-77
2020/12/20 07:29:00;;;;;;;19.13;17.27;;;;;;;2.87;68.72;98431.53;8371558;28;20654;-78
2020/12/20 07:33:02;;;;;;;19.63;17.63;;;;;;;2.92;68.71;98429.78;8370956;28;20237;-78
2020/12/20 07:37:05;;;;;;;19.87;17.97;;;;;;;3.16;68.20;98435.63;8371499;28;20624;-78
2020/12/20 07:41:07;;;;;;;19.97;17.93;;;;;;;3.19;67.86;98440.72;8370226;28;20196;-77
2020/12/20 07:45:12;;;;;;;21.40;19.30;;;;;;;2.76;68.70;98443.56;8370475;28;20227;-78
2020/12/20 07:49:15;;;;;;;21.73;18.63;;;;;;;2.81;68.85;98433.28;8369257;28;20211;-77
2020/12/20 07:53:17;;;;;;;21.07;18.90;;;;;;;2.93;68.66;98421.28;8368741;28;20231;-77
2020/12/20 07:57:19;;;;;;;18.67;16.87;;;;;;;3.15;68.46;98435.63;8370220;28;20211;-77
2020/12/20 08:01:21;;;;;;;18.90;16.97;;;;;;;3.19;67.91;98439.88;8370525;28;20257;-77
2020/12/20 08:05:24;;;;;;;19.67;17.63;;;;;;;3.23;67.67;98431.28;8370025;28;20720;-77
2020/12/20 08:09:26;;;;;;;20.83;18.73;;;;;;;2.91;68.74;98434.91;8373163;28;20208;-78
2020/12/20 08:13:28;;;;;;;19.07;17.27;;;;;;;3.08;68.51;98435.66;8375255;28;20562;-78
2020/12/20 08:17:30;;;;;;;19.70;17.73;;;;;;;2.89;68.81;98427.28;8370844;28;20210;-78
2020/12/20 08:21:56;;;;;;;19.33;17.33;;;;;;;3.20;68.04;98446.66;8368368;28;20223;-78
2020/12/20 08:26:01;;;;;;;19.50;17.50;;;;;;;3.38;67.31;98456.78;8369309;28;20201;-78
2020/12/20 08:30:05;;;;;;;20.13;18.03;;;;;;;3.31;67.82;98460.25;8370153;28;20214;-78
2020/12/20 08:34:18;;;;;;;18.60;16.60;;;;;;;3.62;66.71;98468.53;8369088;28;20237;-78
2020/12/20 08:38:21;;;;;;;20.07;18.13;;;;;;;3.33;67.66;98468.75;8370371;28;20188;-77
2020/12/20 08:42:22;;;;;;;20.60;18.50;;;;;;;3.25;68.05;98467.97;8369361;28;20231;-78
2020/12/20 08:46:28;;;;;;;20.40;18.20;;;;;;;3.37;68.06;98452.53;8369694;28;20196;-78
2020/12/20 08:50:31;;;;;;;20.90;18.70;;;;;;;3.25;68.13;98457.72;8368565;28;20239;-78
2020/12/20 08:54:34;;;;;;;19.77;17.77;;;;;;;3.13;68.61;98461.22;8369047;28;20631;-78
2020/12/20 08:58:36;;;;;;;20.47;18.37;;;;;;;3.53;67.79;98474.59;8368181;28;20204;-78
2020/12/20 09:02:37;;;;;;;20.43;18.43;;;;;;;3.57;67.05;98472.84;8369217;28;20231;-78
2020/12/20 09:06:39;;;;;;;18.53;16.67;;;;;;;3.78;66.50;98483.78;8368483;28;20270;-78
2020/12/20 09:10:42;;;;;;;19.23;17.30;;;;;;;3.51;67.02;98478.88;8368019;28;20211;-80
2020/12/20 09:14:59;;;;;;;20.73;18.53;;;;;;;3.23;68.22;98465.41;8369416;28;20211;-78
2020/12/20 09:19:01;;;;;;;19.60;17.63;;;;;;;3.56;67.26;98475.41;8369030;28;20192;-78
2020/12/20 09:23:02;;;;;;;19.27;17.37;;;;;;;3.57;67.31;98480.53;8367044;28;20269;-78
2020/12/20 09:27:05;;;;;;;18.50;16.60;;;;;;;3.50;67.22;98490.00;8367193;28;20651;-77
2020/12/20 09:31:12;;;;;;;19.60;17.70;;;;;;;3.46;67.35;98472.09;8367219;28;20222;-78
2020/12/20 09:35:14;;;;;;;18.90;17.07;;;;;;;3.23;68.17;98487.59;8367488;28;20233;-77
2020/12/20 09:39:16;;;;;;;19.73;17.73;;;;;;;3.07;68.54;98472.34;8367425;28;20650;-78
2020/12/20 09:43:20;;;;;;;19.17;17.27;;;;;;;3.25;69.03;98473.94;8366447;28;20556;-77
2020/12/20 09:47:21;;;;;;;18.07;16.30;;;;;;;3.42;68.02;98470.41;8359814;28;20204;-78
2020/12/20 09:51:23;;;;;;;19.37;17.53;;;;;;;3.52;67.90;98462.66;8367008;28;20243;-78
2020/12/20 09:55:29;;;;;;;17.60;15.90;;;;;;;3.66;67.33;98469.38;8366581;28;20206;-78
2020/12/20 09:59:32;;;;;;;18.13;16.33;;;;;;;3.90;66.60;98469.16;8366422;28;20184;-77
2020/12/20 10:03:33;;;;;;;18.33;16.47;;;;;;;3.47;68.42;98459.28;8366348;28;20687;-78
2020/12/20 10:07:36;;;;;;;19.20;17.20;;;;;;;3.47;67.51;98461.84;8366805;28;20204;-77
2020/12/20 10:11:37;;;;;;;19.03;17.13;;;;;;;3.64;67.69;98458.28;8366770;28;20204;-78
2020/12/20 10:15:40;;;;;;;19.97;17.87;;;;;;;3.81;67.54;98458.13;8366296;28;20203;-77
2020/12/20 10:19:42;;;;;;;18.83;17.00;;;;;;;3.64;67.43;98463.41;8366897;28;20206;-78
2020/12/20 10:23:43;;;;;;;18.80;16.90;;;;;;;3.70;67.50;98464.19;8365799;28;20231;-78
2020/12/20 10:27:45;;;;;;;18.40;16.50;;;;;;;4.14;66.11;98463.78;8365284;28;20204;-79
2020/12/20 10:31:49;;;;;;;18.90;16.90;;;;;;;4.07;66.03;98457.88;8365989;28;20200;-78
2020/12/20 10:35:52;;;;;;;19.27;17.37;;;;;;;3.72;67.63;98464.19;8366476;28;20219;-77
2020/12/20 10:39:53;;;;;;;19.37;17.33;;;;;;;3.90;66.71;98453.78;8365535;28;20204;-77
2020/12/20 10:43:55;;;;;;;19.03;17.13;;;;;;;3.94;66.39;98454.59;8370323;28;20235;-77
2020/12/20 10:47:58;;;;;;;19.63;17.53;;;;;;;3.99;66.42;98449.41;8373371;28;20269;-77
2020/12/20 10:52:00;;;;;;;18.90;17.00;;;;;;;4.38;65.89;98434.44;8372750;28;20267;-77
2020/12/20 10:56:02;;;;;;;18.50;16.70;;;;;;;4.50;64.44;98435.16;8371704;28;20196;-77
2020/12/20 11:00:04;;;;;;;18.43;16.50;;;;;;;4.40;65.37;98436.16;8373180;28;20215;-78
2020/12/20 11:04:07;;;;;;;17.63;15.87;;;;;;;4.55;64.99;98434.25;8372060;28;20568;-77
2020/12/20 11:08:09;;;;;;;19.47;17.47;;;;;;;4.57;64.81;98425.69;8374222;28;20199;-77
2020/12/20 11:12:10;;;;;;;19.13;17.33;;;;;;;4.40;64.98;98422.44;8371987;28;20223;-78
2020/12/20 11:16:17;;;;;;;18.73;16.83;;;;;;;4.57;64.72;98422.25;8372698;28;20195;-78
2020/12/20 11:20:19;;;;;;;17.23;15.53;;;;;;;4.49;65.02;98423.22;8372318;28;20203;-77
2020/12/20 11:24:21;;;;;;;17.43;15.73;;;;;;;4.60;65.07;98399.13;8372124;28;20227;-77
2020/12/20 11:28:23;;;;;;;18.03;16.23;;;;;;;4.27;65.59;98408.97;8372034;28;20204;-77
2020/12/20 11:32:25;;;;;;;17.37;15.67;;;;;;;4.66;65.07;98401.59;8371332;28;20211;-77
2020/12/20 11:36:31;;;;;;;17.60;15.80;;;;;;;4.74;64.03;98409.19;8370693;28;20692;-77
2020/12/20 11:40:33;;;;;;;17.73;16.03;;;;;;;4.94;63.73;98414.91;8370554;28;20203;-77
2020/12/20 11:44:35;;;;;;;18.07;16.27;;;;;;;4.49;64.68;98418.09;8370617;28;20228;-77
2020/12/20 11:48:37;;;;;;;17.70;15.90;;;;;;;4.63;64.93;98410.19;8370889;28;20219;-78
2020/12/20 11:52:40;;;;;;;18.73;16.83;;;;;;;4.58;65.02;98417.09;8372804;28;20239;-78
2020/12/20 11:56:42;;;;;;;17.10;15.30;;;;;;;4.64;65.04;98406.75;8370339;28;20207;-77
2020/12/20 12:00:45;;;;;;;17.50;15.80;;;;;;;4.90;64.24;98408.13;8371803;28;20226;-77
2020/12/20 12:04:46;;;;;;;17.50;15.70;;;;;;;5.17;63.84;98408.56;8372428;28;20590;-78
2020/12/20 12:08:49;;;;;;;17.50;15.70;;;;;;;5.20;63.45;98400.84;8370154;28;20204;-77
2020/12/20 12:12:51;;;;;;;17.00;15.30;;;;;;;5.07;63.74;98400.19;8369741;28;20555;-77
2020/12/20 12:16:52;;;;;;;16.40;14.80;;;;;;;5.20;63.42;98411.13;8369556;28;20407;-77
2020/12/20 12:20:54;;;;;;;451.80;176.17;;;;;;;4.64;65.84;98400.78;8369350;28;20211;-77
2020/12/20 12:24:57;;;;;;;937.30;433.17;;;;;;;5.08;68.78;98407.84;8370174;28;20235;-77
2020/12/20 12:28:58;;;;;;;290.40;120.33;;;;;;;5.13;66.09;98402.63;8369404;28;20208;-77
2020/12/20 12:33:00;;;;;;;176.57;79.07;;;;;;;5.07;64.14;98395.03;8369467;28;20200;-77
2020/12/20 12:37:05;;;;;;;820.10;376.50;;;;;;;5.32;69.20;98394.66;8369638;28;20207;-78
2020/12/20 12:41:07;;;;;;;1999.90;999.90;;;;;;;6.37;73.16;98393.59;8368272;28;20204;-78
2020/12/20 12:45:09;;;;;;;1577.70;677.43;;;;;;;6.25;72.58;98385.25;8368515;28;20228;-77
2020/12/20 12:49:11;;;;;;;872.90;413.57;;;;;;;6.46;64.73;98399.41;8369719;28;20211;-78
2020/12/20 12:53:13;;;;;;;1999.90;931.53;;;;;;;6.78;73.40;98395.31;8369624;28;20729;-78
2020/12/20 12:57:16;;;;;;;67.70;38.37;;;;;;;6.11;62.27;98395.00;8336186;28;20608;-77
2020/12/20 13:01:18;;;;;;;960.80;412.60;;;;;;;6.21;67.62;98393.09;8336570;28;20205;-78
2020/12/20 13:05:20;;;;;;;149.53;68.73;;;;;;;6.05;61.73;98397.66;8359475;28;20243;-77
2020/12/20 13:09:22;;;;;;;255.57;104.63;;;;;;;6.04;63.20;98393.41;8368366;28;20514;-77
2020/12/20 13:13:24;;;;;;;210.90;92.07;;;;;;;6.26;63.87;98396.38;8370521;28;20219;-78
2020/12/20 13:17:26;;;;;;;108.20;45.37;;;;;;;6.07;65.10;98403.63;8372022;28;20653;-79
2020/12/20 13:21:28;;;;;;;69.47;34.97;;;;;;;6.04;64.07;98411.41;8369682;28;20207;-78
2020/12/20 13:25:30;;;;;;;17.03;15.33;;;;;;;6.07;61.74;98422.47;8371102;28;20228;-77
2020/12/20 13:29:32;;;;;;;16.03;14.43;;;;;;;6.10;61.09;98423.28;8367416;28;20559;-76
2020/12/20 13:33:34;;;;;;;17.00;14.93;;;;;;;6.09;61.00;98411.31;8367488;28;20616;-77
2020/12/20 13:37:36;;;;;;;16.47;14.80;;;;;;;5.74;62.22;98423.06;8367108;28;20635;-77
2020/12/20 13:41:38;;;;;;;14.57;13.17;;;;;;;6.00;61.63;98431.19;8367663;28;20215;-77
2020/12/20 13:45:40;;;;;;;15.57;14.07;;;;;;;5.83;61.00;98422.91;8367948;28;20228;-77
2020/12/20 13:49:42;;;;;;;16.50;14.17;;;;;;;5.48;62.16;98419.19;8366549;28;20207;-77
2020/12/20 13:53:44;;;;;;;15.53;14.00;;;;;;;5.37;62.65;98428.78;8366401;28;20638;-77
2020/12/20 13:57:45;;;;;;;17.83;15.93;;;;;;;5.41;62.39;98438.19;8366586;28;20196;-76
2020/12/20 14:01:53;;;;;;;16.77;15.10;;;;;;;5.51;62.31;98428.59;8366215;28;20212;-76
2020/12/20 14:05:55;;;;;;;15.73;13.80;;;;;;;5.59;62.12;98453.28;8366085;28;20902;-76
2020/12/20 14:09:56;;;;;;;15.73;14.23;;;;;;;5.34;62.26;98442.53;8366345;28;20204;-76
2020/12/20 14:13:58;;;;;;;16.40;14.70;;;;;;;5.23;63.06;98454.69;8366157;28;20199;-76
2020/12/20 14:18:00;;;;;;;15.83;14.23;;;;;;;5.05;63.56;98448.97;8365428;28;20204;-77
2020/12/20 14:22:02;;;;;;;16.50;14.83;;;;;;;5.13;62.92;98450.59;8365245;28;20210;-77
2020/12/20 14:26:04;;;;;;;17.60;15.80;;;;;;;5.10;63.13;98454.03;8365538;28;20223;-77
2020/12/20 14:30:06;;;;;;;17.60;15.80;;;;;;;4.71;64.41;98466.53;8365638;28;20662;-77
2020/12/20 14:34:08;;;;;;;17.07;15.33;;;;;;;4.83;64.51;98460.41;8365446;28;20534;-76
2020/12/20 14:38:10;;;;;;;19.00;16.73;;;;;;;4.34;65.93;98446.50;8366090;28;20196;-77
2020/12/20 14:42:12;;;;;;;17.60;15.83;;;;;;;4.39;65.81;98451.53;8364862;28;20206;-77
2020/12/20 14:46:14;;;;;;;17.57;15.77;;;;;;;4.29;66.08;98432.84;8381470;28;20310;-76
2020/12/20 14:50:17;;;;;;;17.93;16.10;;;;;;;4.15;66.47;98443.28;8397654;28;20276;-77
2020/12/20 14:54:19;;;;;;;17.60;15.83;;;;;;;4.40;65.82;98448.09;8398416;28;20203;-77
2020/12/20 14:58:20;;;;;;;16.97;15.27;;;;;;;4.50;65.13;98467.66;8398232;28;20677;-77
2020/12/20 15:02:22;;;;;;;16.93;15.33;;;;;;;4.53;65.23;98462.47;8397997;28;20199;-77
2020/12/20 15:06:25;;;;;;;17.40;15.60;;;;;;;4.67;65.01;98470.03;8398066;28;20606;-76
2020/12/20 15:10:27;;;;;;;18.27;15.70;;;;;;;4.49;65.29;98476.22;8397252;28;20210;-76
2020/12/20 15:14:28;;;;;;;18.97;17.17;;;;;;;4.25;66.20;98469.66;8397652;28;20245;-76
2020/12/20 15:18:30;;;;;;;18.17;16.27;;;;;;;4.53;65.31;98480.44;8398231;28;20207;-76
2020/12/20 15:22:33;;;;;;;18.47;16.57;;;;;;;4.05;66.89;98464.72;8397669;28;20191;-76
2020/12/20 15:26:34;;;;;;;17.90;16.10;;;;;;;4.28;66.28;98478.16;8397715;28;20206;-76
2020/12/20 15:30:36;;;;;;;20.27;18.20;;;;;;;4.26;65.89;98481.59;8402505;28;20199;-76
2020/12/20 15:34:40;;;;;;;20.53;18.33;;;;;;;4.40;65.61;98494.25;8403990;28;20207;-76
2020/12/20 15:38:45;;;;;;;18.50;16.70;;;;;;;4.24;66.10;98484.16;8404094;28;20242;-76
2020/12/20 15:42:46;;;;;;;20.37;18.17;;;;;;;4.09;66.71;98486.91;8404561;28;20606;-76
2020/12/20 15:46:52;;;;;;;21.57;19.17;;;;;;;3.85;67.31;98480.31;8402908;28;20241;-76
2020/12/20 15:50:53;;;;;;;17.57;15.80;;;;;;;4.09;67.11;98485.19;8402705;28;21028;-76
2020/12/20 15:54:56;;;;;;;22.37;19.03;;;;;;;3.89;68.43;98479.41;8397574;28;20524;-78
2020/12/20 15:59:00;;;;;;;20.83;18.13;;;;;;;5.18;67.99;98480.47;8370280;28;20227;-78
2020/12/20 16:03:01;;;;;;;17.57;15.87;;;;;;;4.74;64.81;98491.31;8372286;28;20216;-78
2020/12/20 16:07:04;;;;;;;19.90;17.90;;;;;;;4.64;65.26;98488.84;8370881;28;20246;-78
2020/12/20 16:11:07;;;;;;;19.67;17.67;;;;;;;4.34;66.18;98481.50;8371384;28;20215;-77
2020/12/20 16:15:08;;;;;;;21.97;19.67;;;;;;;3.87;67.75;98476.88;8372437;28;20250;-78
2020/12/20 16:19:11;;;;;;;21.70;19.40;;;;;;;4.02;67.16;98481.00;8370861;28;20270;-77
2020/12/20 16:23:14;;;;;;;21.33;19.13;;;;;;;4.16;66.66;98491.09;8370077;28;20606;-77
2020/12/20 16:27:16;;;;;;;21.43;19.20;;;;;;;3.78;68.08;98494.88;8370449;28;20628;-77
2020/12/20 16:31:18;;;;;;;18.33;16.50;;;;;;;3.92;68.02;98502.44;8370088;28;20210;-76
2020/12/20 16:35:20;;;;;;;20.93;18.93;;;;;;;4.02;67.19;98498.94;8369194;28;20208;-76
2020/12/20 16:39:22;;;;;;;19.57;17.47;;;;;;;4.10;67.19;98514.25;8367395;28;20219;-75
2020/12/20 16:43:25;;;;;;;19.40;17.47;;;;;;;4.08;66.84;98514.25;8368840;28;20682;-76
2020/12/20 16:47:27;;;;;;;22.00;19.00;;;;;;;3.87;67.64;98506.78;8369130;28;20196;-76
2020/12/20 16:51:28;;;;;;;22.20;19.90;;;;;;;3.62;68.46;98508.69;8368960;28;20224;-76
2020/12/20 16:55:30;;;;;;;21.47;19.27;;;;;;;3.44;69.38;98517.34;8367761;28;20211;-75
2020/12/20 16:59:33;;;;;;;23.40;21.00;;;;;;;3.59;68.75;98511.25;8368875;28;20195;-75
2020/12/20 17:03:55;;;;;;;21.67;19.47;;;;;;;3.64;68.36;98527.44;8367495;28;20233;-75
2020/12/20 17:08:17;;;;;;;27.40;23.70;;;;;;;3.89;67.72;98522.97;8366618;28;20203;-76
2020/12/20 17:12:24;;;;;;;21.50;19.27;;;;;;;3.70;68.95;98535.09;8365804;28;20191;-76
2020/12/20 17:16:31;;;;;;;22.27;20.07;;;;;;;3.82;68.15;98524.72;8367602;28;20188;-76
2020/12/20 17:20:38;;;;;;;22.33;20.03;;;;;;;3.24;70.05;98536.25;8367653;28;20200;-76
2020/12/20 17:24:45;;;;;;;22.17;19.90;;;;;;;3.70;68.89;98533.38;8366625;28;20234;-76
2020/12/20 17:28:52;;;;;;;24.97;21.63;;;;;;;3.59;68.84;98526.63;8365373;28;20187;-76
2020/12/20 17:32:59;;;;;;;25.03;22.43;;;;;;;3.77;68.68;98529.06;8366220;28;20192;-76
2020/12/20 17:37:06;;;;;;;23.80;21.33;;;;;;;3.83;68.35;98536.69;8367497;28;20613;-76
2020/12/20 17:41:14;;;;;;;23.47;21.00;;;;;;;3.86;68.19;98535.81;8365202;28;20195;-76
2020/12/20 17:45:20;;;;;;;25.10;21.87;;;;;;;3.57;68.85;98543.72;8364107;28;20218;-76
2020/12/20 17:49:28;;;;;;;22.23;20.03;;;;;;;3.92;68.70;98552.00;8364383;28;20199;-76
2020/12/20 17:53:34;;;;;;;23.33;20.93;;;;;;;3.89;68.47;98557.13;8363206;28;20591;-76
2020/12/20 17:57:36;;;;;;;22.73;20.33;;;;;;;4.11;67.50;98560.38;8365604;28;20207;-76
2020/12/20 18:01:38;;;;;;;23.20;20.90;;;;;;;4.11;67.69;98575.75;8365395;28;20220;-76
2020/12/20 18:05:41;;;;;;;24.93;22.33;;;;;;;4.18;67.56;98565.44;8365360;28;20261;-76
2020/12/20 18:09:43;;;;;;;23.47;21.10;;;;;;;4.19;67.45;98572.25;8365152;28;20198;-76
2020/12/20 18:13:45;;;;;;;24.53;21.93;;;;;;;3.87;68.43;98569.09;8365252;28;20223;-76
2020/12/20 18:17:47;;;;;;;24.57;21.93;;;;;;;3.89;68.32;98575.06;8364012;28;20298;-76
2020/12/20 18:21:50;;;;;;;23.93;21.40;;;;;;;4.06;67.98;98576.66;8366220;28;20196;-76
2020/12/20 18:25:52;;;;;;;24.80;22.30;;;;;;;3.90;68.14;98581.03;8365101;28;20223;-75
2020/12/20 18:29:53;;;;;;;25.00;22.47;;;;;;;3.75;68.74;98578.59;8365615;28;20219;-75
2020/12/20 18:33:55;;;;;;;31.73;28.33;;;;;;;3.98;68.56;98580.97;8365380;28;20208;-75
2020/12/20 18:37:58;;;;;;;24.17;21.63;;;;;;;3.68;68.64;98581.19;8365378;28;20531;-75
2020/12/20 18:41:59;;;;;;;24.67;22.07;;;;;;;4.01;68.21;98579.25;8365253;28;20246;-75
2020/12/20 18:46:05;;;;;;;26.17;23.47;;;;;;;3.86;68.28;98585.31;8364920;28;20223;-75
2020/12/20 18:50:06;;;;;;;26.87;23.20;;;;;;;4.04;67.88;98594.59;8365497;28;20231;-75